sensor_id;sensor_type;location;lat;lon;timestamp;pressure;altitude;pressure_sealevel;temperature;humidity
45129;BME280;35512;56.312;101.728;2023-12-22T00:00:40;97739.00;;;-18.41;74.46
45129;BME280;35512;56.312;101.728;2023-12-22T00:03:09;97736.09;;;-18.38;74.14
45129;BME280;35512;56.312;101.728;2023-12-22T00:05:38;97742.91;;;-18.37;74.46
45129;BME280;35512;56.312;101.728;2023-12-22T00:08:07;97738.38;;;-18.35;74.52
45129;BME280;35512;56.312;101.728;2023-12-22T00:10:35;97751.13;;;-18.33;74.46
45129;BME280;35512;56.312;101.728;2023-12-22T00:13:04;97750.19;;;-18.32;74.35
45129;BME280;35512;56.312;101.728;2023-12-22T00:15:32;97741.34;;;-18.30;74.61
45129;BME280;35512;56.312;101.728;2023-12-22T00:18:00;97744.59;;;-18.28;74.33
45129;BME280;35512;56.312;101.728;2023-12-22T00:20:29;97755.56;;;-18.26;74.21
45129;BME280;35512;56.312;101.728;2023-12-22T00:22:57;97754.09;;;-18.28;73.98
45129;BME280;35512;56.312;101.728;2023-12-22T00:25:26;97758.06;;;-18.34;74.07
45129;BME280;35512;56.312;101.728;2023-12-22T00:27:54;97757.25;;;-18.34;74.22
45129;BME280;35512;56.312;101.728;2023-12-22T00:30:23;97759.53;;;-18.31;74.26
45129;BME280;35512;56.312;101.728;2023-12-22T00:32:52;97753.06;;;-18.35;74.32
45129;BME280;35512;56.312;101.728;2023-12-22T00:35:21;97757.53;;;-18.38;74.35
45129;BME280;35512;56.312;101.728;2023-12-22T00:37:49;97773.69;;;-18.35;74.67
45129;BME280;35512;56.312;101.728;2023-12-22T00:40:18;97764.25;;;-18.27;74.37
45129;BME280;35512;56.312;101.728;2023-12-22T00:42:47;97766.03;;;-18.27;74.14
45129;BME280;35512;56.312;101.728;2023-12-22T00:45:15;97765.66;;;-18.32;74.24
45129;BME280;35512;56.312;101.728;2023-12-22T00:47:44;97768.22;;;-18.32;74.13
45129;BME280;35512;56.312;101.728;2023-12-22T00:50:13;97764.84;;;-18.33;74.12
45129;BME280;35512;56.312;101.728;2023-12-22T00:52:42;97759.69;;;-18.33;74.11
45129;BME280;35512;56.312;101.728;2023-12-22T00:55:10;97763.38;;;-18.35;74.17
45129;BME280;35512;56.312;101.728;2023-12-22T00:57:39;97756.09;;;-18.40;73.76
45129;BME280;35512;56.312;101.728;2023-12-22T01:00:09;97757.59;;;-18.47;73.87
45129;BME280;35512;56.312;101.728;2023-12-22T01:02:40;97758.84;;;-18.51;73.86
45129;BME280;35512;56.312;101.728;2023-12-22T01:05:09;97761.28;;;-18.50;73.95
45129;BME280;35512;56.312;101.728;2023-12-22T01:07:38;97758.03;;;-18.52;74.10
45129;BME280;35512;56.312;101.728;2023-12-22T01:10:07;97760.47;;;-18.50;74.08
45129;BME280;35512;56.312;101.728;2023-12-22T01:12:35;97761.19;;;-18.58;73.78
45129;BME280;35512;56.312;101.728;2023-12-22T01:15:04;97758.47;;;-18.57;74.39
45129;BME280;35512;56.312;101.728;2023-12-22T01:17:33;97752.28;;;-18.46;74.18
45129;BME280;35512;56.312;101.728;2023-12-22T01:20:01;97758.69;;;-18.50;74.03
45129;BME280;35512;56.312;101.728;2023-12-22T01:22:30;97754.38;;;-18.49;73.83
45129;BME280;35512;56.312;101.728;2023-12-22T01:25:00;97759.84;;;-18.62;73.70
45129;BME280;35512;56.312;101.728;2023-12-22T01:27:29;97759.63;;;-18.69;73.75
45129;BME280;35512;56.312;101.728;2023-12-22T01:29:58;97756.81;;;-18.76;73.67
45129;BME280;35512;56.312;101.728;2023-12-22T01:32:26;97765.56;;;-18.86;73.52
45129;BME280;35512;56.312;101.728;2023-12-22T01:35:01;97768.44;;;-18.90;73.49
45129;BME280;35512;56.312;101.728;2023-12-22T01:37:31;97764.03;;;-19.07;73.40
45129;BME280;35512;56.312;101.728;2023-12-22T01:40:00;97760.94;;;-19.11;73.44
45129;BME280;35512;56.312;101.728;2023-12-22T01:42:31;97754.59;;;-19.26;73.34
45129;BME280;35512;56.312;101.728;2023-12-22T01:45:00;97763.84;;;-19.33;73.42
45129;BME280;35512;56.312;101.728;2023-12-22T01:47:29;97765.38;;;-19.41;73.43
45129;BME280;35512;56.312;101.728;2023-12-22T01:49:58;97766.84;;;-19.38;73.57
45129;BME280;35512;56.312;101.728;2023-12-22T01:52:27;97774.44;;;-19.36;73.57
45129;BME280;35512;56.312;101.728;2023-12-22T01:54:56;97766.13;;;-19.30;73.69
45129;BME280;35512;56.312;101.728;2023-12-22T01:57:24;97779.56;;;-19.27;73.55
45129;BME280;35512;56.312;101.728;2023-12-22T01:59:53;97777.91;;;-19.28;73.59
45129;BME280;35512;56.312;101.728;2023-12-22T02:02:22;97782.81;;;-19.25;73.65
45129;BME280;35512;56.312;101.728;2023-12-22T02:04:51;97780.50;;;-19.28;73.50
45129;BME280;35512;56.312;101.728;2023-12-22T02:07:20;97781.84;;;-19.24;73.63
45129;BME280;35512;56.312;101.728;2023-12-22T02:09:48;97785.34;;;-19.15;73.43
45129;BME280;35512;56.312;101.728;2023-12-22T02:12:17;97782.91;;;-19.16;73.40
45129;BME280;35512;56.312;101.728;2023-12-22T02:14:45;97781.00;;;-19.14;73.48
45129;BME280;35512;56.312;101.728;2023-12-22T02:17:15;97779.38;;;-19.15;73.42
45129;BME280;35512;56.312;101.728;2023-12-22T02:19:50;97782.63;;;-19.13;73.69
45129;BME280;35512;56.312;101.728;2023-12-22T02:22:19;97783.81;;;-19.08;73.76
45129;BME280;35512;56.312;101.728;2023-12-22T02:24:47;97783.50;;;-18.95;73.66
45129;BME280;35512;56.312;101.728;2023-12-22T02:30:08;97773.34;;;-18.50;74.21
45129;BME280;35512;56.312;101.728;2023-12-22T02:32:38;97767.13;;;-18.12;74.08
45129;BME280;35512;56.312;101.728;2023-12-22T02:35:14;97777.25;;;-18.00;73.73
45129;BME280;35512;56.312;101.728;2023-12-22T02:37:45;97775.75;;;-17.59;74.92
45129;BME280;35512;56.312;101.728;2023-12-22T02:40:15;97776.97;;;-16.33;76.57
45129;BME280;35512;56.312;101.728;2023-12-22T02:42:45;97771.31;;;-14.97;77.97
45129;BME280;35512;56.312;101.728;2023-12-22T02:45:16;97769.31;;;-13.92;77.14
45129;BME280;35512;56.312;101.728;2023-12-22T02:47:44;97766.97;;;-13.26;76.54
45129;BME280;35512;56.312;101.728;2023-12-22T02:50:15;97765.34;;;-13.12;74.26
45129;BME280;35512;56.312;101.728;2023-12-22T02:52:43;97772.13;;;-13.79;72.18
45129;BME280;35512;56.312;101.728;2023-12-22T02:55:13;97774.56;;;-14.63;70.64
45129;BME280;35512;56.312;101.728;2023-12-22T02:57:42;97773.00;;;-15.53;70.43
45129;BME280;35512;56.312;101.728;2023-12-22T03:00:11;97777.66;;;-16.23;70.98
45129;BME280;35512;56.312;101.728;2023-12-22T03:02:40;97772.38;;;-16.64;71.52
45129;BME280;35512;56.312;101.728;2023-12-22T03:05:08;97768.19;;;-17.08;71.65
45129;BME280;35512;56.312;101.728;2023-12-22T03:07:37;97777.19;;;-17.38;72.32
45129;BME280;35512;56.312;101.728;2023-12-22T03:10:06;97778.19;;;-17.57;72.77
45129;BME280;35512;56.312;101.728;2023-12-22T03:12:34;97784.28;;;-17.66;72.79
45129;BME280;35512;56.312;101.728;2023-12-22T03:15:03;97779.84;;;-17.74;72.81
45129;BME280;35512;56.312;101.728;2023-12-22T03:17:32;97783.78;;;-17.88;72.94
45129;BME280;35512;56.312;101.728;2023-12-22T03:20:01;97788.94;;;-17.88;73.11
45129;BME280;35512;56.312;101.728;2023-12-22T03:22:30;97781.19;;;-17.88;73.55
45129;BME280;35512;56.312;101.728;2023-12-22T03:24:58;97783.28;;;-17.65;74.17
45129;BME280;35512;56.312;101.728;2023-12-22T03:27:27;97785.88;;;-17.47;74.23
45129;BME280;35512;56.312;101.728;2023-12-22T03:29:55;97773.50;;;-17.36;73.99
45129;BME280;35512;56.312;101.728;2023-12-22T03:32:24;97775.97;;;-17.26;74.34
45129;BME280;35512;56.312;101.728;2023-12-22T03:34:52;97776.34;;;-17.21;74.22
45129;BME280;35512;56.312;101.728;2023-12-22T03:37:21;97770.22;;;-17.20;74.34
45129;BME280;35512;56.312;101.728;2023-12-22T03:39:49;97769.41;;;-17.20;73.97
45129;BME280;35512;56.312;101.728;2023-12-22T03:42:17;97766.31;;;-17.24;74.24
45129;BME280;35512;56.312;101.728;2023-12-22T03:44:46;97758.25;;;-17.21;74.26
45129;BME280;35512;56.312;101.728;2023-12-22T03:47:14;97758.81;;;-17.09;74.34
45129;BME280;35512;56.312;101.728;2023-12-22T03:49:43;97759.19;;;-16.95;74.26
45129;BME280;35512;56.312;101.728;2023-12-22T03:52:12;97759.84;;;-16.85;74.29
45129;BME280;35512;56.312;101.728;2023-12-22T03:54:40;97754.06;;;-16.79;74.27
45129;BME280;35512;56.312;101.728;2023-12-22T03:57:09;97760.72;;;-16.68;74.31
45129;BME280;35512;56.312;101.728;2023-12-22T03:59:37;97757.34;;;-16.60;74.25
45129;BME280;35512;56.312;101.728;2023-12-22T04:02:07;97756.56;;;-16.53;74.62
45129;BME280;35512;56.312;101.728;2023-12-22T04:04:39;97757.72;;;-16.47;74.20
45129;BME280;35512;56.312;101.728;2023-12-22T04:07:08;97760.31;;;-16.47;74.35
45129;BME280;35512;56.312;101.728;2023-12-22T04:09:37;97754.16;;;-16.46;74.70
45129;BME280;35512;56.312;101.728;2023-12-22T04:12:06;97758.72;;;-16.48;74.00
45129;BME280;35512;56.312;101.728;2023-12-22T04:14:35;97757.25;;;-16.51;73.91
45129;BME280;35512;56.312;101.728;2023-12-22T04:17:03;97763.34;;;-16.60;73.98
45129;BME280;35512;56.312;101.728;2023-12-22T04:19:32;97762.00;;;-16.72;73.78
45129;BME280;35512;56.312;101.728;2023-12-22T04:22:01;97763.44;;;-16.78;73.57
45129;BME280;35512;56.312;101.728;2023-12-22T04:24:29;97754.84;;;-16.95;73.63
45129;BME280;35512;56.312;101.728;2023-12-22T04:26:58;97760.75;;;-17.03;73.78
45129;BME280;35512;56.312;101.728;2023-12-22T04:29:26;97759.31;;;-17.05;74.09
45129;BME280;35512;56.312;101.728;2023-12-22T04:31:54;97749.63;;;-17.03;73.86
45129;BME280;35512;56.312;101.728;2023-12-22T04:34:23;97750.59;;;-17.04;74.03
45129;BME280;35512;56.312;101.728;2023-12-22T04:36:52;97748.50;;;-17.01;74.51
45129;BME280;35512;56.312;101.728;2023-12-22T04:39:20;97750.00;;;-16.90;74.82
45129;BME280;35512;56.312;101.728;2023-12-22T04:41:52;97755.19;;;-16.81;74.26
45129;BME280;35512;56.312;101.728;2023-12-22T04:44:21;97752.63;;;-16.73;74.51
45129;BME280;35512;56.312;101.728;2023-12-22T04:46:49;97757.53;;;-16.54;75.15
45129;BME280;35512;56.312;101.728;2023-12-22T04:49:18;97748.41;;;-16.23;75.68
45129;BME280;35512;56.312;101.728;2023-12-22T04:51:46;97755.06;;;-16.04;75.13
45129;BME280;35512;56.312;101.728;2023-12-22T04:54:15;97748.09;;;-15.95;74.82
45129;BME280;35512;56.312;101.728;2023-12-22T04:56:44;97754.75;;;-15.93;74.94
45129;BME280;35512;56.312;101.728;2023-12-22T04:59:12;97755.53;;;-15.92;74.86
45129;BME280;35512;56.312;101.728;2023-12-22T05:01:41;97751.50;;;-15.95;74.84
45129;BME280;35512;56.312;101.728;2023-12-22T05:04:11;97745.34;;;-16.02;74.75
45129;BME280;35512;56.312;101.728;2023-12-22T05:06:40;97756.34;;;-16.08;74.68
45129;BME280;35512;56.312;101.728;2023-12-22T05:09:08;97750.88;;;-15.97;75.17
45129;BME280;35512;56.312;101.728;2023-12-22T05:11:36;97748.59;;;-15.92;75.19
45129;BME280;35512;56.312;101.728;2023-12-22T05:14:05;97752.28;;;-15.78;75.31
45129;BME280;35512;56.312;101.728;2023-12-22T05:16:34;97743.38;;;-15.59;75.96
45129;BME280;35512;56.312;101.728;2023-12-22T05:19:02;97742.88;;;-15.46;75.85
45129;BME280;35512;56.312;101.728;2023-12-22T05:21:31;97741.56;;;-15.34;75.74
45129;BME280;35512;56.312;101.728;2023-12-22T05:24:00;97733.94;;;-15.27;75.57
45129;BME280;35512;56.312;101.728;2023-12-22T05:26:28;97735.56;;;-15.26;75.42
45129;BME280;35512;56.312;101.728;2023-12-22T05:28:58;97736.69;;;-15.28;75.94
45129;BME280;35512;56.312;101.728;2023-12-22T05:31:27;97746.72;;;-15.25;75.63
45129;BME280;35512;56.312;101.728;2023-12-22T05:33:56;97739.59;;;-15.15;75.53
45129;BME280;35512;56.312;101.728;2023-12-22T05:36:24;97742.81;;;-15.21;75.19
45129;BME280;35512;56.312;101.728;2023-12-22T05:38:53;97747.22;;;-15.22;75.67
45129;BME280;35512;56.312;101.728;2023-12-22T05:41:23;97752.03;;;-15.10;75.83
45129;BME280;35512;56.312;101.728;2023-12-22T05:43:51;97744.38;;;-14.96;76.36
45129;BME280;35512;56.312;101.728;2023-12-22T05:46:20;97743.59;;;-14.96;76.23
45129;BME280;35512;56.312;101.728;2023-12-22T05:48:49;97745.38;;;-14.97;76.05
45129;BME280;35512;56.312;101.728;2023-12-22T05:51:21;97749.91;;;-14.99;75.54
45129;BME280;35512;56.312;101.728;2023-12-22T05:53:49;97738.44;;;-15.04;75.30
45129;BME280;35512;56.312;101.728;2023-12-22T05:56:18;97741.22;;;-15.22;75.06
45129;BME280;35512;56.312;101.728;2023-12-22T05:58:48;97733.28;;;-15.21;75.39
45129;BME280;35512;56.312;101.728;2023-12-22T06:01:17;97742.84;;;-15.30;75.49
45129;BME280;35512;56.312;101.728;2023-12-22T06:03:47;97749.47;;;-15.27;76.05
45129;BME280;35512;56.312;101.728;2023-12-22T06:06:16;97741.72;;;-15.27;76.08
45129;BME280;35512;56.312;101.728;2023-12-22T06:08:45;97748.34;;;-15.24;76.04
45129;BME280;35512;56.312;101.728;2023-12-22T06:11:13;97742.19;;;-15.23;76.11
45129;BME280;35512;56.312;101.728;2023-12-22T06:13:42;97747.38;;;-15.15;76.25
45129;BME280;35512;56.312;101.728;2023-12-22T06:16:11;97740.38;;;-15.15;76.07
45129;BME280;35512;56.312;101.728;2023-12-22T06:18:41;97733.59;;;-15.16;75.89
45129;BME280;35512;56.312;101.728;2023-12-22T06:21:10;97731.84;;;-15.23;75.63
45129;BME280;35512;56.312;101.728;2023-12-22T06:23:39;97735.88;;;-15.21;76.25
45129;BME280;35512;56.312;101.728;2023-12-22T06:26:08;97730.53;;;-15.19;76.14
45129;BME280;35512;56.312;101.728;2023-12-22T06:28:37;97739.59;;;-15.15;76.47
45129;BME280;35512;56.312;101.728;2023-12-22T06:31:10;97732.94;;;-15.09;76.50
45129;BME280;35512;56.312;101.728;2023-12-22T06:33:50;97733.56;;;-14.99;76.62
45129;BME280;35512;56.312;101.728;2023-12-22T06:36:23;97738.91;;;-15.01;75.82
45129;BME280;35512;56.312;101.728;2023-12-22T06:38:52;97756.75;;;-15.14;75.82
45129;BME280;35512;56.312;101.728;2023-12-22T06:41:24;97744.97;;;-15.25;75.64
45129;BME280;35512;56.312;101.728;2023-12-22T06:43:55;97742.84;;;-15.30;75.72
45129;BME280;35512;56.312;101.728;2023-12-22T06:46:24;97736.72;;;-15.37;75.80
45129;BME280;35512;56.312;101.728;2023-12-22T06:48:57;97739.78;;;-15.33;76.03
45129;BME280;35512;56.312;101.728;2023-12-22T06:51:28;97730.06;;;-15.31;76.01
45129;BME280;35512;56.312;101.728;2023-12-22T06:54:03;97731.69;;;-15.38;75.62
45129;BME280;35512;56.312;101.728;2023-12-22T06:56:34;97738.81;;;-15.40;75.65
45129;BME280;35512;56.312;101.728;2023-12-22T06:59:03;97738.53;;;-15.45;75.30
45129;BME280;35512;56.312;101.728;2023-12-22T07:01:34;97736.56;;;-15.52;75.70
45129;BME280;35512;56.312;101.728;2023-12-22T07:04:04;97735.13;;;-15.54;75.47
45129;BME280;35512;56.312;101.728;2023-12-22T07:06:33;97734.97;;;-15.61;75.44
45129;BME280;35512;56.312;101.728;2023-12-22T07:11:41;97723.31;;;-15.73;74.92
45129;BME280;35512;56.312;101.728;2023-12-22T07:14:10;97724.00;;;-15.79;75.06
45129;BME280;35512;56.312;101.728;2023-12-22T07:16:39;97723.81;;;-15.78;75.10
45129;BME280;35512;56.312;101.728;2023-12-22T07:19:08;97740.69;;;-15.82;75.38
45129;BME280;35512;56.312;101.728;2023-12-22T07:21:37;97729.97;;;-15.79;75.64
45129;BME280;35512;56.312;101.728;2023-12-22T07:24:05;97727.56;;;-15.80;75.86
45129;BME280;35512;56.312;101.728;2023-12-22T07:26:34;97736.97;;;-15.79;75.38
45129;BME280;35512;56.312;101.728;2023-12-22T07:29:04;97731.44;;;-15.85;75.74
45129;BME280;35512;56.312;101.728;2023-12-22T07:31:34;97739.88;;;-15.83;76.17
45129;BME280;35512;56.312;101.728;2023-12-22T07:34:03;97740.47;;;-15.72;75.81
45129;BME280;35512;56.312;101.728;2023-12-22T07:36:32;97732.06;;;-15.66;76.22
45129;BME280;35512;56.312;101.728;2023-12-22T07:39:01;97726.22;;;-15.60;76.20
45129;BME280;35512;56.312;101.728;2023-12-22T07:41:29;97725.88;;;-15.49;76.28
45129;BME280;35512;56.312;101.728;2023-12-22T07:43:58;97732.03;;;-15.41;76.35
45129;BME280;35512;56.312;101.728;2023-12-22T07:46:26;97730.72;;;-15.29;76.25
45129;BME280;35512;56.312;101.728;2023-12-22T07:48:56;97724.69;;;-15.13;76.65
45129;BME280;35512;56.312;101.728;2023-12-22T07:51:25;97715.78;;;-15.19;75.83
45129;BME280;35512;56.312;101.728;2023-12-22T07:53:53;97721.66;;;-15.33;76.02
45129;BME280;35512;56.312;101.728;2023-12-22T07:56:22;97725.22;;;-15.42;75.92
45129;BME280;35512;56.312;101.728;2023-12-22T07:58:50;97724.59;;;-15.69;75.43
45129;BME280;35512;56.312;101.728;2023-12-22T08:01:21;97726.94;;;-15.83;75.40
45129;BME280;35512;56.312;101.728;2023-12-22T08:03:50;97736.97;;;-15.96;74.92
45129;BME280;35512;56.312;101.728;2023-12-22T08:06:19;97733.53;;;-16.05;75.33
45129;BME280;35512;56.312;101.728;2023-12-22T08:08:47;97736.13;;;-16.13;75.28
45129;BME280;35512;56.312;101.728;2023-12-22T08:11:16;97737.59;;;-16.10;75.84
45129;BME280;35512;56.312;101.728;2023-12-22T08:13:44;97746.16;;;-16.10;75.62
45129;BME280;35512;56.312;101.728;2023-12-22T08:16:13;97740.97;;;-16.10;75.86
45129;BME280;35512;56.312;101.728;2023-12-22T08:18:42;97741.13;;;-16.11;76.11
45129;BME280;35512;56.312;101.728;2023-12-22T08:21:10;97728.03;;;-16.10;75.79
45129;BME280;35512;56.312;101.728;2023-12-22T08:23:51;97735.00;;;-16.10;76.12
45129;BME280;35512;56.312;101.728;2023-12-22T08:26:23;97739.66;;;-16.14;75.84
45129;BME280;35512;56.312;101.728;2023-12-22T08:28:51;97752.78;;;-16.16;76.06
45129;BME280;35512;56.312;101.728;2023-12-22T08:31:20;97740.66;;;-16.15;76.37
45129;BME280;35512;56.312;101.728;2023-12-22T08:33:49;97747.59;;;-16.16;76.18
45129;BME280;35512;56.312;101.728;2023-12-22T08:36:17;97740.81;;;-16.17;75.85
45129;BME280;35512;56.312;101.728;2023-12-22T08:38:46;97735.63;;;-16.25;75.62
45129;BME280;35512;56.312;101.728;2023-12-22T08:41:15;97731.25;;;-16.24;75.90
45129;BME280;35512;56.312;101.728;2023-12-22T08:43:44;97735.66;;;-16.17;76.19
45129;BME280;35512;56.312;101.728;2023-12-22T08:46:13;97746.13;;;-16.18;76.33
45129;BME280;35512;56.312;101.728;2023-12-22T08:48:42;97746.63;;;-16.14;76.23
45129;BME280;35512;56.312;101.728;2023-12-22T08:51:10;97747.16;;;-16.03;76.38
45129;BME280;35512;56.312;101.728;2023-12-22T08:53:39;97744.72;;;-16.12;75.88
45129;BME280;35512;56.312;101.728;2023-12-22T08:56:08;97732.91;;;-16.15;75.93
45129;BME280;35512;56.312;101.728;2023-12-22T08:58:36;97732.72;;;-16.13;76.22
45129;BME280;35512;56.312;101.728;2023-12-22T09:01:07;97732.72;;;-16.13;76.11
45129;BME280;35512;56.312;101.728;2023-12-22T09:03:36;97738.06;;;-16.15;76.16
45129;BME280;35512;56.312;101.728;2023-12-22T09:06:14;97733.53;;;-16.21;75.81
45129;BME280;35512;56.312;101.728;2023-12-22T09:08:44;97736.44;;;-16.24;76.09
45129;BME280;35512;56.312;101.728;2023-12-22T09:11:13;97730.59;;;-16.26;75.94
45129;BME280;35512;56.312;101.728;2023-12-22T09:13:43;97731.25;;;-16.33;75.94
45129;BME280;35512;56.312;101.728;2023-12-22T09:16:11;97740.31;;;-16.28;76.07
45129;BME280;35512;56.312;101.728;2023-12-22T09:18:43;97738.22;;;-16.25;76.39
45129;BME280;35512;56.312;101.728;2023-12-22T09:21:13;97733.19;;;-16.18;76.00
45129;BME280;35512;56.312;101.728;2023-12-22T09:23:41;97735.47;;;-16.23;75.82
45129;BME280;35512;56.312;101.728;2023-12-22T09:26:13;97727.56;;;-16.22;76.00
45129;BME280;35512;56.312;101.728;2023-12-22T09:28:42;97729.47;;;-16.24;75.90
45129;BME280;35512;56.312;101.728;2023-12-22T09:31:11;97732.06;;;-16.24;75.92
45129;BME280;35512;56.312;101.728;2023-12-22T09:33:41;97732.88;;;-16.23;76.00
45129;BME280;35512;56.312;101.728;2023-12-22T09:36:10;97734.34;;;-16.21;76.12
45129;BME280;35512;56.312;101.728;2023-12-22T09:38:40;97738.06;;;-16.15;76.13
45129;BME280;35512;56.312;101.728;2023-12-22T09:41:09;97740.34;;;-16.12;75.98
45129;BME280;35512;56.312;101.728;2023-12-22T09:43:38;97733.88;;;-16.16;76.33
45129;BME280;35512;56.312;101.728;2023-12-22T09:46:07;97730.94;;;-16.13;76.32
45129;BME280;35512;56.312;101.728;2023-12-22T09:48:37;97737.75;;;-16.12;76.40
45129;BME280;35512;56.312;101.728;2023-12-22T09:51:08;97738.38;;;-16.10;76.29
45129;BME280;35512;56.312;101.728;2023-12-22T09:53:37;97734.53;;;-15.97;76.40
45129;BME280;35512;56.312;101.728;2023-12-22T09:56:06;97738.25;;;-15.92;76.01
45129;BME280;35512;56.312;101.728;2023-12-22T09:58:35;97741.47;;;-15.98;76.01
45129;BME280;35512;56.312;101.728;2023-12-22T10:01:05;97740.84;;;-15.92;76.34
45129;BME280;35512;56.312;101.728;2023-12-22T10:03:34;97737.25;;;-15.91;76.10
45129;BME280;35512;56.312;101.728;2023-12-22T10:06:03;97731.63;;;-15.94;76.23
45129;BME280;35512;56.312;101.728;2023-12-22T10:08:32;97734.84;;;-15.92;76.54
45129;BME280;35512;56.312;101.728;2023-12-22T10:11:01;97738.56;;;-15.87;76.53
45129;BME280;35512;56.312;101.728;2023-12-22T10:13:31;97731.78;;;-15.88;76.48
45129;BME280;35512;56.312;101.728;2023-12-22T10:16:01;97739.22;;;-15.85;76.38
45129;BME280;35512;56.312;101.728;2023-12-22T10:18:30;97739.34;;;-15.78;76.48
45129;BME280;35512;56.312;101.728;2023-12-22T10:20:59;97738.88;;;-15.82;76.34
45129;BME280;35512;56.312;101.728;2023-12-22T10:23:29;97745.03;;;-15.74;76.53
45129;BME280;35512;56.312;101.728;2023-12-22T10:25:57;97738.69;;;-15.72;76.54
45129;BME280;35512;56.312;101.728;2023-12-22T10:28:27;97739.84;;;-15.74;76.67
45129;BME280;35512;56.312;101.728;2023-12-22T10:30:56;97742.28;;;-15.73;76.62
45129;BME280;35512;56.312;101.728;2023-12-22T10:33:29;97742.56;;;-15.68;76.94
45129;BME280;35512;56.312;101.728;2023-12-22T10:35:58;97735.13;;;-15.62;77.10
45129;BME280;35512;56.312;101.728;2023-12-22T10:38:32;97743.38;;;-15.59;76.89
45129;BME280;35512;56.312;101.728;2023-12-22T10:41:05;97732.88;;;-15.57;76.73
45129;BME280;35512;56.312;101.728;2023-12-22T10:43:40;97731.06;;;-15.49;77.04
45129;BME280;35512;56.312;101.728;2023-12-22T10:46:09;97733.66;;;-15.49;77.13
45129;BME280;35512;56.312;101.728;2023-12-22T10:48:39;97722.81;;;-15.52;77.12
45129;BME280;35512;56.312;101.728;2023-12-22T10:51:09;97733.00;;;-15.42;77.17
45129;BME280;35512;56.312;101.728;2023-12-22T10:53:42;97731.69;;;-15.38;76.82
45129;BME280;35512;56.312;101.728;2023-12-22T10:56:11;97716.97;;;-15.38;76.77
45129;BME280;35512;56.312;101.728;2023-12-22T10:58:40;97727.50;;;-15.39;76.92
45129;BME280;35512;56.312;101.728;2023-12-22T11:01:13;97726.84;;;-15.41;76.86
45129;BME280;35512;56.312;101.728;2023-12-22T11:03:44;97726.53;;;-15.38;76.92
45129;BME280;35512;56.312;101.728;2023-12-22T11:06:13;97725.56;;;-15.37;76.93
45129;BME280;35512;56.312;101.728;2023-12-22T11:08:44;97729.78;;;-15.36;76.61
45129;BME280;35512;56.312;101.728;2023-12-22T11:11:33;97725.38;;;-15.36;76.72
45129;BME280;35512;56.312;101.728;2023-12-22T11:14:03;97721.66;;;-15.33;77.16
45129;BME280;35512;56.312;101.728;2023-12-22T11:16:32;97719.88;;;-15.33;76.94
45129;BME280;35512;56.312;101.728;2023-12-22T11:19:04;97719.53;;;-15.30;76.98
45129;BME280;35512;56.312;101.728;2023-12-22T11:21:32;97718.72;;;-15.30;76.80
45129;BME280;35512;56.312;101.728;2023-12-22T11:24:03;97708.19;;;-15.28;77.12
45129;BME280;35512;56.312;101.728;2023-12-22T11:26:32;97708.34;;;-15.22;77.23
45129;BME280;35512;56.312;101.728;2023-12-22T11:29:01;97707.22;;;-15.19;77.30
45129;BME280;35512;56.312;101.728;2023-12-22T11:31:31;97699.44;;;-15.19;76.94
45129;BME280;35512;56.312;101.728;2023-12-22T11:34:00;97700.88;;;-15.17;77.22
45129;BME280;35512;56.312;101.728;2023-12-22T11:36:38;97702.16;;;-15.13;77.29
45129;BME280;35512;56.312;101.728;2023-12-22T11:39:08;97692.94;;;-15.15;77.10
45129;BME280;35512;56.312;101.728;2023-12-22T11:41:37;97697.47;;;-15.17;76.92
45129;BME280;35512;56.312;101.728;2023-12-22T11:44:08;97695.19;;;-15.12;77.00
45129;BME280;35512;56.312;101.728;2023-12-22T11:46:37;97690.84;;;-15.11;77.10
45129;BME280;35512;56.312;101.728;2023-12-22T11:49:06;97692.44;;;-15.10;76.81
45129;BME280;35512;56.312;101.728;2023-12-22T11:51:35;97687.25;;;-15.10;77.34
45129;BME280;35512;56.312;101.728;2023-12-22T11:54:03;97681.56;;;-15.06;77.08
45129;BME280;35512;56.312;101.728;2023-12-22T11:56:32;97686.59;;;-15.04;77.18
45129;BME280;35512;56.312;101.728;2023-12-22T11:59:02;97679.91;;;-14.99;77.14
45129;BME280;35512;56.312;101.728;2023-12-22T12:01:34;97679.25;;;-14.92;77.24
45129;BME280;35512;56.312;101.728;2023-12-22T12:04:07;97675.84;;;-14.93;77.27
45129;BME280;35512;56.312;101.728;2023-12-22T12:06:36;97668.88;;;-14.92;77.06
45129;BME280;35512;56.312;101.728;2023-12-22T12:09:06;97664.81;;;-14.87;77.06
45129;BME280;35512;56.312;101.728;2023-12-22T12:14:28;97664.13;;;-14.81;77.34
45129;BME280;35512;56.312;101.728;2023-12-22T12:16:59;97664.06;;;-14.72;76.99
45129;BME280;35512;56.312;101.728;2023-12-22T12:19:29;97657.91;;;-14.71;77.30
45129;BME280;35512;56.312;101.728;2023-12-22T12:21:57;97659.34;;;-14.69;77.68
45129;BME280;35512;56.312;101.728;2023-12-22T12:24:27;97661.59;;;-14.66;77.38
45129;BME280;35512;56.312;101.728;2023-12-22T12:26:59;97654.09;;;-14.60;77.82
45129;BME280;35512;56.312;101.728;2023-12-22T12:29:28;97654.69;;;-14.50;77.57
45129;BME280;35512;56.312;101.728;2023-12-22T12:32:05;97653.97;;;-14.44;77.38
45129;BME280;35512;56.312;101.728;2023-12-22T12:34:37;97659.81;;;-14.42;77.62
45129;BME280;35512;56.312;101.728;2023-12-22T12:37:11;97646.16;;;-14.36;77.43
45129;BME280;35512;56.312;101.728;2023-12-22T12:39:53;97646.63;;;-14.32;77.98
45129;BME280;35512;56.312;101.728;2023-12-22T12:42:31;97642.88;;;-14.30;77.72
45129;BME280;35512;56.312;101.728;2023-12-22T12:45:00;97646.91;;;-14.27;77.65
45129;BME280;35512;56.312;101.728;2023-12-22T12:47:28;97644.44;;;-14.20;77.47
45129;BME280;35512;56.312;101.728;2023-12-22T12:49:58;97644.44;;;-14.20;77.97